createdAt,value
2018-06-02T00:00:48.253Z,38.50
2018-06-02T00:01:48.275Z,41.90
2018-06-02T00:02:48.296Z,40.30
2018-06-02T00:04:48.342Z,41.40
2018-06-02T00:05:48.362Z,41.50
2018-06-02T00:06:48.386Z,41.40
2018-06-02T00:07:48.408Z,43.20
2018-06-02T00:08:48.429Z,42.50
2018-06-02T00:09:48.453Z,41.50
2018-06-02T00:10:48.474Z,41.70
2018-06-02T00:11:48.497Z,40.70
2018-06-02T00:12:48.721Z,39.80
2018-06-02T00:13:48.539Z,42.00
2018-06-02T00:14:48.561Z,41.20
2018-06-02T00:15:48.585Z,38.00
2018-06-02T00:16:48.605Z,40.70
2018-06-02T00:17:48.627Z,39.20
2018-06-02T00:18:48.649Z,40.90
2018-06-02T00:19:48.672Z,44.10
2018-06-02T00:20:48.694Z,43.10
2018-06-02T00:21:48.715Z,40.40
2018-06-02T00:22:48.737Z,42.90
2018-06-02T00:23:48.759Z,40.10
2018-06-02T00:24:48.781Z,40.10
2018-06-02T00:25:48.804Z,41.80
2018-06-02T00:26:48.825Z,42.60
2018-06-02T00:27:48.848Z,40.90
2018-06-02T00:28:48.871Z,44.20
2018-06-02T00:29:48.890Z,38.30
2018-06-02T00:30:48.913Z,41.80
2018-06-02T00:31:48.936Z,40.20
2018-06-02T00:32:48.957Z,41.20
2018-06-02T00:33:48.978Z,38.80
2018-06-02T00:34:49.001Z,40.40
2018-06-02T00:35:49.024Z,42.10
2018-06-02T00:36:49.049Z,41.60
2018-06-02T00:37:49.066Z,42.70
2018-06-02T00:38:49.091Z,40.80
2018-06-02T00:39:49.111Z,41.70
2018-06-02T00:40:49.134Z,42.50
2018-06-02T00:41:49.155Z,47.30
2018-06-02T00:42:49.176Z,49.40
2018-06-02T00:43:49.200Z,61.50
2018-06-02T00:44:49.221Z,61.10
2018-06-02T00:45:49.242Z,57.40
2018-06-02T00:46:49.266Z,61.50
2018-06-02T00:47:49.287Z,66.10
2018-06-02T00:48:49.311Z,65.00
2018-06-02T00:49:49.332Z,66.90
2018-06-02T00:50:49.352Z,66.90
2018-06-02T00:51:49.375Z,66.30
2018-06-02T00:52:49.396Z,69.20
2018-06-02T00:53:49.418Z,74.40
2018-06-02T00:54:49.443Z,73.70
2018-06-02T00:55:49.462Z,74.90
2018-06-02T00:56:49.486Z,72.60
2018-06-02T00:57:49.505Z,74.60
2018-06-02T00:58:49.527Z,75.00
2018-06-02T00:59:49.551Z,69.40
2018-06-02T01:00:49.583Z,77.70
2018-06-02T01:01:49.593Z,73.50
2018-06-02T01:02:49.615Z,73.10
2018-06-02T01:03:49.639Z,73.60
2018-06-02T01:04:49.660Z,71.00
2018-06-02T01:05:49.681Z,69.90
2018-06-02T01:06:49.703Z,69.90
2018-06-02T01:07:49.725Z,73.10
2018-06-02T01:08:49.746Z,72.50
2018-06-02T01:09:49.767Z,74.90
2018-06-02T01:10:49.789Z,73.10
2018-06-02T01:11:49.816Z,74.10
2018-06-02T01:12:49.835Z,71.80
2018-06-02T01:13:49.856Z,75.30
2018-06-02T01:14:49.877Z,72.20
2018-06-02T01:15:49.902Z,76.60
2018-06-02T01:16:49.921Z,70.80
2018-06-02T01:17:49.943Z,73.10
2018-06-02T01:18:49.963Z,73.10
2018-06-02T01:19:49.987Z,74.90
2018-06-02T01:20:50.041Z,74.00
2018-06-02T01:21:50.031Z,72.90
2018-06-02T01:22:50.053Z,70.20
2018-06-02T01:23:50.072Z,73.60
2018-06-02T01:24:50.094Z,71.10
2018-06-02T01:25:50.116Z,70.50
2018-06-02T01:26:50.137Z,69.40
2018-06-02T01:27:50.160Z,72.10
2018-06-02T01:28:50.181Z,67.50
2018-06-02T01:29:50.203Z,67.90
2018-06-02T01:30:50.223Z,68.70
2018-06-02T01:31:50.245Z,69.80
2018-06-02T01:32:50.268Z,67.60
2018-06-02T01:33:50.289Z,71.70
2018-06-02T01:34:50.310Z,65.30
2018-06-02T01:35:50.332Z,67.80
2018-06-02T01:36:50.354Z,68.00
2018-06-02T01:37:50.379Z,66.00
2018-06-02T01:38:50.397Z,60.90
2018-06-02T01:39:50.419Z,62.90
2018-06-02T01:40:50.444Z,65.00
2018-06-02T01:41:50.462Z,64.00
2018-06-02T01:42:50.484Z,62.90
2018-06-02T01:43:50.506Z,62.80
2018-06-02T01:44:50.534Z,60.00
2018-06-02T01:45:50.549Z,59.30
2018-06-02T01:46:50.574Z,62.10
2018-06-02T01:47:50.591Z,64.40
2018-06-02T01:48:50.613Z,64.90
2018-06-02T01:49:50.635Z,64.30
2018-06-02T01:50:50.659Z,63.50
2018-06-02T01:51:50.678Z,70.50
2018-06-02T01:52:50.700Z,68.90
2018-06-02T01:53:50.721Z,72.60
2018-06-02T01:54:50.744Z,74.20
2018-06-02T01:55:50.764Z,75.50
2018-06-02T01:56:50.788Z,79.40
2018-06-02T01:57:50.808Z,77.40
2018-06-02T01:58:50.829Z,82.40
2018-06-02T01:59:50.851Z,86.00
2018-06-02T02:00:50.872Z,89.50
2018-06-02T02:01:50.895Z,84.50
2018-06-02T02:02:50.917Z,86.90
2018-06-02T02:03:50.937Z,87.50
2018-06-02T02:04:50.959Z,89.10
2018-06-02T02:05:50.980Z,92.90
2018-06-02T02:06:51.003Z,94.10
2018-06-02T02:07:51.025Z,102.70
2018-06-02T02:08:51.046Z,94.50
2018-06-02T02:09:51.070Z,94.90
2018-06-02T02:10:51.088Z,97.00
2018-06-02T02:11:51.114Z,101.40
2018-06-02T02:12:51.132Z,98.60
2018-06-02T02:13:51.153Z,100.80
2018-06-02T02:14:51.175Z,104.70
2018-06-02T02:15:51.196Z,105.90
2018-06-02T02:16:51.218Z,105.40
2018-06-02T02:17:51.238Z,113.70
2018-06-02T02:18:51.261Z,111.50
2018-06-02T02:19:51.282Z,105.10
2018-06-02T02:20:51.305Z,106.90
2018-06-02T02:21:51.325Z,111.80
2018-06-02T02:22:51.348Z,102.10
2018-06-02T02:23:51.372Z,103.20
2018-06-02T02:24:51.399Z,103.70
2018-06-02T02:25:51.411Z,96.90
2018-06-02T02:26:51.434Z,103.80
2018-06-02T02:27:51.455Z,109.60
2018-06-02T02:28:51.478Z,105.50
2018-06-02T02:29:51.503Z,111.70
2018-06-02T02:30:51.520Z,115.60
2018-06-02T02:31:51.543Z,106.80
2018-06-02T02:32:51.564Z,108.30
2018-06-02T02:33:51.584Z,110.50
2018-06-02T02:34:51.608Z,114.20
2018-06-02T02:35:51.627Z,108.60
2018-06-02T02:36:51.651Z,107.30
2018-06-02T02:37:51.671Z,108.20
2018-06-02T02:38:51.693Z,108.20
2018-06-02T02:39:51.714Z,99.30
2018-06-02T02:40:51.737Z,95.70
2018-06-02T02:41:51.757Z,92.70
2018-06-02T02:42:51.779Z,90.90
2018-06-02T02:43:51.801Z,89.20
2018-06-02T02:44:51.824Z,93.00
2018-06-02T02:45:51.858Z,85.20
2018-06-02T02:46:51.866Z,90.40
2018-06-02T02:47:51.889Z,94.40
2018-06-02T02:48:51.975Z,88.20
2018-06-02T02:50:51.953Z,91.20
2018-06-02T02:51:51.974Z,88.30
2018-06-02T02:52:51.996Z,86.80
2018-06-02T02:53:52.017Z,83.00
2018-06-02T02:54:52.038Z,81.60
2018-06-02T02:55:52.061Z,80.90
2018-06-02T02:56:52.082Z,82.20
2018-06-02T02:57:52.102Z,80.90
2018-06-02T02:58:52.124Z,73.40
2018-06-02T02:59:52.147Z,77.80
2018-06-02T03:00:52.168Z,80.00
2018-06-02T03:01:52.192Z,74.40
2018-06-02T03:02:52.210Z,70.80
2018-06-02T03:03:52.232Z,75.10
2018-06-02T03:04:52.253Z,74.90
2018-06-02T03:05:52.274Z,73.90
2018-06-02T03:06:52.297Z,69.10
2018-06-02T03:07:52.319Z,68.60
2018-06-02T03:08:52.341Z,70.80
2018-06-02T03:09:52.361Z,67.70
2018-06-02T03:10:52.383Z,66.70
2018-06-02T03:11:52.405Z,67.00
2018-06-02T03:12:52.428Z,67.30
2018-06-02T03:13:52.446Z,65.20
2018-06-02T03:14:52.468Z,63.70
2018-06-02T03:15:52.491Z,65.40
2018-06-02T03:16:52.512Z,63.20
2018-06-02T03:17:52.532Z,63.50
2018-06-02T03:18:52.555Z,62.50
2018-06-02T03:19:52.600Z,59.90
2018-06-02T03:20:52.597Z,61.70
2018-06-02T03:21:52.618Z,55.20
2018-06-02T03:22:52.639Z,57.90
2018-06-02T03:23:52.661Z,54.30
2018-06-02T03:24:52.684Z,51.60
2018-06-02T03:25:52.705Z,52.30
2018-06-02T03:26:52.726Z,48.10
2018-06-02T03:27:52.748Z,46.10
2018-06-02T03:28:52.769Z,48.70
2018-06-02T03:29:52.790Z,45.80
2018-06-02T03:30:52.812Z,44.60
2018-06-02T03:31:52.835Z,43.80
2018-06-02T03:32:52.856Z,42.60
2018-06-02T03:33:52.876Z,42.40
2018-06-02T03:34:52.898Z,40.80
2018-06-02T03:35:52.918Z,41.50
2018-06-02T03:36:52.940Z,40.30
2018-06-02T03:37:52.962Z,38.40
2018-06-02T03:38:52.982Z,42.00
2018-06-02T03:39:53.006Z,37.20
2018-06-02T03:40:53.026Z,37.50
2018-06-02T03:41:53.049Z,39.90
2018-06-02T03:42:53.070Z,42.70
2018-06-02T03:43:53.090Z,39.10
2018-06-02T03:44:53.114Z,35.80
2018-06-02T03:45:53.134Z,36.60
2018-06-02T03:46:53.155Z,38.80
2018-06-02T03:47:53.177Z,39.80
2018-06-02T03:48:53.199Z,38.70
2018-06-02T03:49:53.222Z,39.00
2018-06-02T03:50:53.240Z,38.10
2018-06-02T03:51:53.263Z,38.40
2018-06-02T03:52:53.285Z,38.50
2018-06-02T03:53:53.305Z,37.60
2018-06-02T03:54:53.327Z,37.00
2018-06-02T03:55:53.350Z,39.40
2018-06-02T03:56:53.370Z,35.50
2018-06-02T03:57:53.392Z,38.80
2018-06-02T03:58:53.414Z,39.60
2018-06-02T03:59:53.435Z,39.50
2018-06-02T04:00:53.456Z,38.50
2018-06-02T04:01:53.477Z,36.20
2018-06-02T04:02:53.499Z,38.60
2018-06-02T04:03:53.520Z,32.60
2018-06-02T04:04:53.542Z,38.50
2018-06-02T04:05:53.564Z,35.90
2018-06-02T04:06:53.587Z,37.10
2018-06-02T04:07:53.609Z,34.70
2018-06-02T04:08:53.628Z,36.30
2018-06-02T04:09:53.649Z,34.20
2018-06-02T04:10:53.671Z,36.70
2018-06-02T04:11:53.693Z,36.20
2018-06-02T04:12:53.714Z,34.90
2018-06-02T04:13:53.735Z,36.20
2018-06-02T04:14:53.757Z,34.60
2018-06-02T04:15:53.819Z,34.90
2018-06-02T04:16:53.800Z,34.00
2018-06-02T04:17:53.821Z,34.40
2018-06-02T04:18:53.843Z,33.50
2018-06-02T04:19:53.864Z,29.90
2018-06-02T04:20:53.889Z,30.80
2018-06-02T04:21:53.906Z,31.00
2018-06-02T04:22:53.928Z,28.50
2018-06-02T04:23:53.950Z,32.10
2018-06-02T04:24:53.973Z,31.20
2018-06-02T04:25:53.998Z,31.40
2018-06-02T04:26:54.014Z,31.10
2018-06-02T04:27:54.036Z,30.40
2018-06-02T04:28:54.059Z,29.00
2018-06-02T04:29:54.081Z,29.30
2018-06-02T04:30:54.101Z,29.00
2018-06-02T04:31:54.123Z,30.50
2018-06-02T04:32:54.148Z,30.40
2018-06-02T04:33:54.164Z,30.00
2018-06-02T04:34:54.187Z,28.10
2018-06-02T04:35:54.209Z,30.50
2018-06-02T04:36:54.230Z,29.90
2018-06-02T04:37:54.250Z,29.60
2018-06-02T04:38:54.273Z,28.90
2018-06-02T04:39:54.294Z,28.00
2018-06-02T04:40:54.316Z,28.60
2018-06-02T04:41:54.337Z,26.50
2018-06-02T04:42:54.358Z,30.20
2018-06-02T04:43:54.380Z,25.10
2018-06-02T04:44:54.402Z,27.40
2018-06-02T04:46:54.444Z,28.80
2018-06-02T04:47:54.466Z,27.20
2018-06-02T04:48:54.487Z,26.70
2018-06-02T04:49:54.508Z,27.50
2018-06-02T04:50:54.530Z,27.30
2018-06-02T04:51:54.556Z,26.90
2018-06-02T04:52:54.574Z,29.10
2018-06-02T04:53:54.596Z,28.90
2018-06-02T04:54:54.617Z,26.20
2018-06-02T04:55:54.639Z,28.00
2018-06-02T04:56:54.710Z,25.90
2018-06-02T04:57:54.683Z,27.40
2018-06-02T04:58:54.703Z,27.60
2018-06-02T04:59:54.726Z,27.10
2018-06-02T05:00:54.749Z,27.70
2018-06-02T05:01:54.768Z,26.30
2018-06-02T05:02:54.789Z,26.50
2018-06-02T05:03:54.813Z,27.20
2018-06-02T05:04:54.834Z,24.80
2018-06-02T05:05:54.855Z,26.30
2018-06-02T05:06:54.876Z,25.50
2018-06-02T05:07:54.899Z,25.90
2018-06-02T05:08:54.920Z,27.30
2018-06-02T05:09:54.942Z,23.90
2018-06-02T05:10:54.962Z,25.50
2018-06-02T05:11:54.988Z,24.70
2018-06-02T05:12:55.006Z,25.90
2018-06-02T05:13:55.028Z,25.70
2018-06-02T05:14:55.049Z,25.50
2018-06-02T05:15:55.072Z,26.20
2018-06-02T05:16:55.092Z,24.90
2018-06-02T05:17:55.113Z,27.60
2018-06-02T05:18:55.135Z,25.90
2018-06-02T05:19:55.157Z,27.10
2018-06-02T05:20:55.184Z,27.70
2018-06-02T05:21:55.201Z,30.00
2018-06-02T05:22:55.222Z,27.10
2018-06-02T05:23:55.243Z,26.00
2018-06-02T05:24:55.266Z,24.10
2018-06-02T05:25:55.287Z,26.30
2018-06-02T05:26:55.309Z,25.60
2018-06-02T05:27:55.331Z,28.50
2018-06-02T05:28:55.352Z,28.50
2018-06-02T05:29:55.373Z,26.30
2018-06-02T05:30:55.395Z,27.10
2018-06-02T05:31:55.416Z,27.20
2018-06-02T05:32:55.439Z,28.50
2018-06-02T05:33:55.460Z,27.50
2018-06-02T05:34:55.486Z,26.40
2018-06-02T05:35:55.503Z,28.40
2018-06-02T05:36:55.525Z,27.50
2018-06-02T05:37:55.550Z,27.50
2018-06-02T05:38:55.569Z,28.60
2018-06-02T05:39:55.590Z,29.00
2018-06-02T05:40:55.613Z,29.90
2018-06-02T05:41:55.634Z,30.00
2018-06-02T05:42:55.655Z,30.20
2018-06-02T05:43:55.678Z,29.90
2018-06-02T05:44:55.700Z,30.00
2018-06-02T05:45:55.735Z,30.70
2018-06-02T05:46:55.743Z,29.50
2018-06-02T05:47:55.765Z,31.10
2018-06-02T05:48:55.785Z,29.30
2018-06-02T05:49:55.806Z,29.40
2018-06-02T05:50:55.829Z,31.20
2018-06-02T05:51:55.850Z,30.10
2018-06-02T05:52:55.878Z,31.50
2018-06-02T05:53:55.892Z,30.70
2018-06-02T05:54:55.916Z,29.80
2018-06-02T05:55:55.937Z,31.60
2018-06-02T05:56:55.960Z,31.80
2018-06-02T05:57:55.980Z,31.80
2018-06-02T05:58:56.002Z,29.10
2018-06-02T05:59:56.071Z,30.60
2018-06-02T06:00:56.046Z,30.40
2018-06-02T06:01:56.067Z,30.10
2018-06-02T06:02:56.292Z,32.70
2018-06-02T06:03:56.111Z,32.00
2018-06-02T06:04:56.133Z,30.50
2018-06-02T06:05:56.154Z,33.80
2018-06-02T06:06:56.176Z,29.70
2018-06-02T06:07:56.197Z,33.90
2018-06-02T06:08:56.220Z,30.60
2018-06-02T06:09:56.240Z,33.60
2018-06-02T06:10:56.262Z,33.10
2018-06-02T06:11:56.284Z,31.50
2018-06-02T06:12:56.310Z,30.60
2018-06-02T06:13:56.326Z,32.20
2018-06-02T06:14:56.348Z,32.30
2018-06-02T06:15:56.371Z,32.20
2018-06-02T06:16:56.392Z,33.60
2018-06-02T06:17:56.414Z,35.40
2018-06-02T06:18:56.435Z,30.20
2018-06-02T06:19:56.457Z,33.50
2018-06-02T06:20:56.479Z,30.90
2018-06-02T06:21:56.501Z,33.30
2018-06-02T06:22:56.525Z,31.80
2018-06-02T06:23:56.545Z,33.70
2018-06-02T06:24:56.566Z,32.60
2018-06-02T06:25:56.589Z,30.90
2018-06-02T06:27:56.631Z,30.70
2018-06-02T06:28:56.653Z,31.40
2018-06-02T06:29:56.673Z,31.50
2018-06-02T06:30:56.695Z,32.50
2018-06-02T06:31:56.720Z,30.80
2018-06-02T06:32:56.765Z,34.20
2018-06-02T06:33:56.760Z,33.30
2018-06-02T06:34:56.781Z,32.40
2018-06-02T06:35:56.805Z,31.50
2018-06-02T06:36:56.826Z,31.20
2018-06-02T06:37:56.846Z,33.30
2018-06-02T06:38:56.868Z,32.30
2018-06-02T06:39:56.889Z,33.80
2018-06-02T06:40:56.912Z,33.50
2018-06-02T06:41:56.934Z,35.70
2018-06-02T06:42:56.956Z,34.80
2018-06-02T06:43:56.978Z,36.40
2018-06-02T06:44:56.999Z,35.30
2018-06-02T06:45:57.021Z,35.00
2018-06-02T06:46:57.043Z,33.10
2018-06-02T06:47:57.064Z,35.40
2018-06-02T06:48:57.087Z,36.10
2018-06-02T06:49:57.107Z,34.90
2018-06-02T06:50:57.129Z,33.60
2018-06-02T06:51:57.151Z,36.80
2018-06-02T06:52:57.174Z,35.30
2018-06-02T06:53:57.194Z,32.40
2018-06-02T06:54:57.220Z,34.50
2018-06-02T06:55:57.239Z,35.40
2018-06-02T06:56:57.261Z,35.50
2018-06-02T06:57:57.280Z,35.30
2018-06-02T06:58:57.302Z,34.70
2018-06-02T06:59:57.325Z,35.70
2018-06-02T07:00:57.350Z,32.80
2018-06-02T07:01:57.367Z,35.30
2018-06-02T07:02:57.391Z,34.60
2018-06-02T07:03:57.412Z,36.40
2018-06-02T07:04:57.434Z,36.80
2018-06-02T07:05:57.454Z,33.70
2018-06-02T07:06:57.477Z,37.80
2018-06-02T07:07:57.499Z,37.10
2018-06-02T07:08:57.528Z,37.30
2018-06-02T07:09:57.542Z,35.80
2018-06-02T07:10:57.566Z,38.50
2018-06-02T07:11:57.628Z,37.50
2018-06-02T07:12:57.609Z,37.90
2018-06-02T07:13:57.629Z,35.70
2018-06-02T07:14:57.652Z,35.20
2018-06-02T07:15:57.677Z,35.10
2018-06-02T07:16:57.696Z,33.70
2018-06-02T07:17:57.716Z,35.80
2018-06-02T07:18:57.738Z,36.60
2018-06-02T07:19:57.761Z,36.30
2018-06-02T07:20:57.784Z,36.90
2018-06-02T07:21:57.803Z,37.50
2018-06-02T07:22:57.826Z,38.80
2018-06-02T07:23:57.848Z,38.90
2018-06-02T07:24:57.870Z,41.70
2018-06-02T07:25:57.889Z,40.10
2018-06-02T07:26:57.911Z,40.70
2018-06-02T07:27:57.934Z,41.70
2018-06-02T07:28:57.958Z,38.90
2018-06-02T07:29:57.976Z,45.60
2018-06-02T07:30:57.999Z,40.60
2018-06-02T07:31:58.022Z,40.20
2018-06-02T07:32:58.043Z,41.00
2018-06-02T07:33:58.067Z,44.30
2018-06-02T07:34:58.088Z,43.30
2018-06-02T07:35:58.123Z,42.30
2018-06-02T07:36:58.129Z,44.00
2018-06-02T07:37:58.150Z,45.20
2018-06-02T07:38:58.172Z,41.80
2018-06-02T07:39:58.194Z,42.40
2018-06-02T07:40:58.216Z,42.00
2018-06-02T07:41:58.245Z,39.80
2018-06-02T07:42:58.259Z,44.60
2018-06-02T07:43:58.281Z,42.50
2018-06-02T07:44:58.303Z,43.60
2018-06-02T07:45:58.326Z,40.50
2018-06-02T07:46:58.346Z,41.70
2018-06-02T07:47:58.370Z,42.80
2018-06-02T07:48:58.390Z,41.60
2018-06-02T07:49:58.501Z,36.00
2018-06-02T07:50:58.435Z,40.00
2018-06-02T07:51:58.454Z,41.10
2018-06-02T07:52:58.681Z,38.80
2018-06-02T07:53:58.500Z,39.20
2018-06-02T07:54:58.520Z,36.80
2018-06-02T07:55:58.547Z,39.70
2018-06-02T07:56:58.565Z,39.70
2018-06-02T07:57:58.585Z,41.70
2018-06-02T07:58:58.608Z,37.70
2018-06-02T07:59:58.631Z,42.20
2018-06-02T08:00:58.652Z,42.00
2018-06-02T08:03:58.717Z,39.60
2018-06-02T08:04:58.739Z,42.10
2018-06-02T08:05:58.761Z,45.00
2018-06-02T08:06:58.783Z,39.80
2018-06-02T08:07:58.808Z,41.40
2018-06-02T08:08:58.828Z,40.70
2018-06-02T08:09:59.051Z,42.70
2018-06-02T08:10:58.871Z,41.60
2018-06-02T08:11:58.892Z,44.40
2018-06-02T08:12:58.914Z,40.10
2018-06-02T08:13:58.936Z,41.40
2018-06-02T08:14:58.958Z,42.90
2018-06-02T08:15:58.980Z,38.90
2018-06-02T08:16:59.003Z,40.10
2018-06-02T08:17:59.024Z,40.40
2018-06-02T08:18:59.050Z,42.20
2018-06-02T08:19:59.070Z,38.40
2018-06-02T08:20:59.090Z,44.40
2018-06-02T08:21:59.112Z,42.60
2018-06-02T08:22:59.135Z,41.80
2018-06-02T08:23:59.163Z,40.40
2018-06-02T08:24:59.178Z,38.70
2018-06-02T08:25:59.200Z,40.00
2018-06-02T08:26:59.223Z,39.40
2018-06-02T08:27:59.246Z,41.20
2018-06-02T08:28:59.276Z,41.20
2018-06-02T08:29:59.288Z,41.80
2018-06-02T08:30:59.324Z,42.90
2018-06-02T08:31:59.333Z,40.70
2018-06-02T08:32:59.356Z,41.90
2018-06-02T08:33:59.377Z,41.70
2018-06-02T08:34:59.399Z,41.70
2018-06-02T08:35:59.422Z,43.60
2018-06-02T08:36:59.444Z,41.40
2018-06-02T08:37:59.467Z,42.90
2018-06-02T08:38:59.522Z,43.00
2018-06-02T08:39:59.511Z,42.70
2018-06-02T08:40:59.533Z,47.40
2018-06-02T08:41:59.555Z,44.40
2018-06-02T08:42:59.577Z,44.10
2018-06-02T08:43:59.600Z,40.20
2018-06-02T08:44:59.626Z,43.50
2018-06-02T08:45:59.646Z,41.30
2018-06-02T08:46:59.667Z,42.10
2018-06-02T08:47:59.693Z,44.60
2018-06-02T08:48:59.713Z,42.20
2018-06-02T08:49:59.734Z,41.70
2018-06-02T08:50:59.757Z,43.40
2018-06-02T08:51:59.781Z,39.60
2018-06-02T08:52:59.803Z,45.70
2018-06-02T08:53:59.824Z,43.80
2018-06-02T08:54:59.848Z,41.70
2018-06-02T08:55:59.870Z,42.00
2018-06-02T08:56:59.893Z,40.70
2018-06-02T08:57:59.919Z,42.00
2018-06-02T08:58:59.939Z,43.70
2018-06-02T08:59:59.961Z,43.00
2018-06-02T09:00:59.983Z,40.50
2018-06-02T09:02:00.005Z,41.80
2018-06-02T09:03:00.028Z,42.20
2018-06-02T09:04:00.052Z,42.10
2018-06-02T09:05:00.073Z,38.90
2018-06-02T09:06:00.096Z,37.30
2018-06-02T09:07:00.118Z,40.20
2018-06-02T09:08:00.143Z,40.10
2018-06-02T09:09:00.165Z,39.00
2018-06-02T09:10:00.186Z,39.50
2018-06-02T09:11:00.210Z,40.90
2018-06-02T09:12:00.233Z,40.70
2018-06-02T09:13:00.257Z,40.40
2018-06-02T09:14:00.278Z,38.50
2018-06-02T09:15:00.301Z,39.50
2018-06-02T09:16:00.323Z,37.20
2018-06-02T09:17:00.350Z,38.60
2018-06-02T09:18:00.367Z,40.00
2018-06-02T09:19:00.390Z,41.40
2018-06-02T09:20:00.414Z,38.50
2018-06-02T09:21:00.443Z,42.00
2018-06-02T09:22:00.461Z,39.40
2018-06-02T09:23:00.484Z,38.50
2018-06-02T09:24:00.510Z,39.80
2018-06-02T09:25:00.528Z,39.90
2018-06-02T09:26:00.551Z,39.80
2018-06-02T09:28:00.598Z,35.90
2018-06-02T09:29:00.621Z,35.70
2018-06-02T09:30:00.644Z,36.70
2018-06-02T09:31:00.667Z,34.80
2018-06-02T09:32:00.691Z,36.60
2018-06-02T09:33:00.718Z,35.30
2018-06-02T09:34:00.737Z,34.80
2018-06-02T09:35:00.790Z,34.70
2018-06-02T09:36:00.784Z,36.00
2018-06-02T09:37:00.808Z,32.80
2018-06-02T09:38:00.833Z,32.80
2018-06-02T09:39:00.853Z,33.90
2018-06-02T09:40:00.877Z,36.30
2018-06-02T09:41:00.901Z,32.30
2018-06-02T09:42:00.925Z,34.80
2018-06-02T09:43:00.948Z,34.00
2018-06-02T09:44:00.975Z,34.50
2018-06-02T09:45:00.997Z,31.30
2018-06-02T09:46:01.020Z,32.80
2018-06-02T09:47:01.044Z,34.20
2018-06-02T09:48:01.069Z,29.90
2018-06-02T09:49:01.092Z,32.70
2018-06-02T09:50:01.116Z,33.70
2018-06-02T09:51:01.139Z,33.40
2018-06-02T09:52:01.163Z,31.60
2018-06-02T09:53:01.188Z,30.10
2018-06-02T09:54:01.212Z,32.30
2018-06-02T09:55:01.237Z,33.20
2018-06-02T09:56:01.260Z,30.70
2018-06-02T09:57:01.284Z,32.20
2018-06-02T09:58:01.309Z,30.20
2018-06-02T09:59:01.338Z,30.00
2018-06-02T10:00:01.363Z,28.90
2018-06-02T10:01:01.382Z,30.60
2018-06-02T10:02:01.406Z,29.00
2018-06-02T10:03:01.430Z,28.00
2018-06-02T10:04:01.454Z,29.90
2018-06-02T10:05:01.480Z,29.50
2018-06-02T10:06:01.502Z,28.00
2018-06-02T10:07:01.730Z,27.60
2018-06-02T10:08:01.551Z,29.90
2018-06-02T10:09:01.576Z,26.20
2018-06-02T10:10:01.600Z,28.50
2018-06-02T10:11:01.624Z,29.30
2018-06-02T10:12:01.650Z,29.90
2018-06-02T10:13:01.674Z,28.90
2018-06-02T10:14:01.697Z,30.00
2018-06-02T10:15:01.727Z,29.50
2018-06-02T10:16:01.746Z,28.00
2018-06-02T10:17:01.773Z,27.90
2018-06-02T10:18:01.798Z,30.00
2018-06-02T10:19:01.823Z,28.80
2018-06-02T10:20:01.846Z,28.90
2018-06-02T10:21:01.869Z,29.90
2018-06-02T10:22:01.894Z,32.70
2018-06-02T10:23:01.919Z,28.70
2018-06-02T10:24:01.942Z,27.80
2018-06-02T10:25:01.969Z,28.60
2018-06-02T10:26:01.993Z,28.40
2018-06-02T10:27:02.016Z,27.00
2018-06-02T10:28:02.040Z,26.60
2018-06-02T10:29:02.065Z,27.90
2018-06-02T10:30:02.089Z,24.90
2018-06-02T10:31:02.115Z,27.20
2018-06-02T10:32:02.138Z,26.10
2018-06-02T10:33:02.167Z,24.20
2018-06-02T10:34:02.190Z,25.40
2018-06-02T10:35:02.211Z,25.70
2018-06-02T10:36:02.238Z,30.10
2018-06-02T10:37:02.261Z,29.90
2018-06-02T10:38:02.290Z,28.60
2018-06-02T10:39:02.310Z,28.40
2018-06-02T10:40:02.334Z,29.60
2018-06-02T10:41:02.359Z,30.50
2018-06-02T10:42:02.382Z,33.60
2018-06-02T10:43:02.412Z,31.90
2018-06-02T10:44:02.435Z,34.00
2018-06-02T10:45:02.456Z,33.00
2018-06-02T10:46:02.481Z,29.30
2018-06-02T10:47:02.504Z,31.80
2018-06-02T10:48:02.531Z,32.00
2018-06-02T10:49:02.556Z,30.50
2018-06-02T10:50:02.577Z,30.60
2018-06-02T10:51:02.603Z,30.90
2018-06-02T10:52:02.627Z,28.30
2018-06-02T10:53:02.650Z,32.40
2018-06-02T10:54:02.678Z,31.50
2018-06-02T10:55:02.700Z,30.70
2018-06-02T10:56:02.723Z,32.00
2018-06-02T10:57:02.747Z,32.10
2018-06-02T10:58:02.772Z,34.00
2018-06-02T10:59:02.796Z,31.30
2018-06-02T11:00:02.820Z,30.90
2018-06-02T11:01:02.846Z,30.20
2018-06-02T11:02:02.872Z,33.00
2018-06-02T11:03:02.894Z,33.90
2018-06-02T11:04:02.918Z,31.00
2018-06-02T11:05:02.945Z,33.00
2018-06-02T11:06:02.966Z,32.90
2018-06-02T11:07:02.992Z,33.10
2018-06-02T11:08:03.018Z,30.40
2018-06-02T11:09:03.080Z,33.00
2018-06-02T11:10:03.063Z,32.60
2018-06-02T11:11:03.090Z,33.20
2018-06-02T11:12:03.115Z,30.40
2018-06-02T11:13:03.140Z,31.60
2018-06-02T11:14:03.162Z,32.10
2018-06-02T11:15:03.187Z,32.20
2018-06-02T11:16:03.213Z,31.00
2018-06-02T11:17:03.236Z,35.50
2018-06-02T11:18:03.261Z,33.70
2018-06-02T11:19:03.286Z,33.50
2018-06-02T11:20:03.316Z,33.30
2018-06-02T11:21:03.337Z,34.80
2018-06-02T11:22:03.359Z,35.50
2018-06-02T11:23:03.384Z,34.00
2018-06-02T11:24:03.409Z,33.10
2018-06-02T11:25:03.434Z,37.50
2018-06-02T11:26:03.463Z,36.80
2018-06-02T11:27:03.481Z,34.90
2018-06-02T11:28:03.507Z,37.30
2018-06-02T11:29:03.530Z,38.40
2018-06-02T11:30:03.556Z,35.60
2018-06-02T11:31:03.578Z,36.50
2018-06-02T11:32:03.603Z,36.70
2018-06-02T11:34:03.651Z,35.60
2018-06-02T11:35:03.675Z,39.20
2018-06-02T11:36:03.699Z,41.60
2018-06-02T11:37:03.727Z,39.90
2018-06-02T11:38:03.747Z,39.00
2018-06-02T11:39:03.772Z,39.60
2018-06-02T11:40:03.797Z,39.90
2018-06-02T11:41:03.821Z,38.40
2018-06-02T11:42:03.844Z,41.10
2018-06-02T11:43:03.876Z,43.90
2018-06-02T11:44:03.951Z,41.70
2018-06-02T11:45:03.917Z,38.40
2018-06-02T11:46:03.939Z,41.40
2018-06-02T11:47:03.964Z,40.10
2018-06-02T11:48:03.988Z,37.90
2018-06-02T11:49:04.013Z,37.90
2018-06-02T11:50:04.040Z,40.00
2018-06-02T11:51:04.059Z,37.60
2018-06-02T11:52:04.084Z,40.70
2018-06-02T11:53:04.107Z,38.40
2018-06-02T11:54:04.131Z,39.90
2018-06-02T11:55:04.154Z,36.90
2018-06-02T11:56:04.179Z,36.10
2018-06-02T11:57:04.202Z,39.60
2018-06-02T11:58:04.226Z,36.20
2018-06-02T11:59:04.249Z,36.70
2018-06-02T12:00:04.275Z,35.10
2018-06-02T12:01:04.316Z,33.70
2018-06-02T12:02:04.322Z,32.20
2018-06-02T12:03:04.346Z,30.10
2018-06-02T12:04:04.371Z,31.40
2018-06-02T12:05:04.396Z,32.30
2018-06-02T12:06:04.423Z,30.40
2018-06-02T12:07:04.445Z,30.90
2018-06-02T12:08:04.469Z,31.10
2018-06-02T12:09:04.492Z,31.90
2018-06-02T12:10:04.516Z,30.60
2018-06-02T12:11:04.540Z,29.50
2018-06-02T12:12:04.565Z,30.60
2018-06-02T12:13:04.590Z,29.90
2018-06-02T12:14:04.614Z,29.50
2018-06-02T12:15:04.641Z,28.40
2018-06-02T12:16:04.666Z,27.70
2018-06-02T12:17:04.687Z,28.00
2018-06-02T12:18:04.710Z,28.60
2018-06-02T12:19:04.734Z,27.50
2018-06-02T12:20:04.759Z,28.30
2018-06-02T12:21:04.783Z,29.00
2018-06-02T12:22:04.806Z,28.00
2018-06-02T12:23:04.831Z,28.60
2018-06-02T12:24:04.856Z,29.20
2018-06-02T12:25:04.880Z,27.80
2018-06-02T12:26:04.910Z,29.00
2018-06-02T12:27:04.928Z,29.50
2018-06-02T12:28:04.953Z,27.90
2018-06-02T12:29:04.978Z,27.30
2018-06-02T12:30:05.001Z,26.20
2018-06-02T12:31:05.026Z,26.10
2018-06-02T12:32:05.050Z,24.90
2018-06-02T12:33:05.277Z,25.40
2018-06-02T12:34:05.098Z,26.20
2018-06-02T12:35:05.121Z,24.50
2018-06-02T12:36:05.147Z,25.70
2018-06-02T12:37:05.171Z,25.60
2018-06-02T12:38:05.193Z,27.50
2018-06-02T12:39:05.224Z,23.70
2018-06-02T12:40:05.241Z,21.80
2018-06-02T12:41:05.265Z,23.00
2018-06-02T12:42:05.288Z,20.90
2018-06-02T12:43:05.313Z,22.80
2018-06-02T12:44:05.338Z,20.50
2018-06-02T12:45:05.362Z,21.10
2018-06-02T12:46:05.385Z,22.20
2018-06-02T12:47:05.410Z,20.80
2018-06-02T12:48:05.433Z,20.80
2018-06-02T12:49:05.457Z,22.10
2018-06-02T12:50:05.481Z,19.40
2018-06-02T12:51:05.505Z,20.20
2018-06-02T12:52:05.529Z,19.70
2018-06-02T12:53:05.555Z,21.20
2018-06-02T12:54:05.576Z,19.00
2018-06-02T12:55:05.602Z,19.80
2018-06-02T12:56:05.626Z,22.10
2018-06-02T12:57:05.650Z,19.00
2018-06-02T12:58:05.674Z,19.70
2018-06-02T12:59:05.699Z,19.80
2018-06-02T13:00:05.722Z,19.40